sensor_id;sensor_type;location;lat;lon;timestamp;P1;durP1;ratioP1;P2;durP2;ratioP2
65461;SDS011;53236;43.666;18.444;2023-06-01T06:00:29;2.13;;;1.30;;
65461;SDS011;53236;43.666;18.444;2023-06-01T06:02:55;5.13;;;1.60;;
65461;SDS011;53236;43.666;18.444;2023-06-01T06:05:21;2.20;;;1.50;;
65461;SDS011;53236;43.666;18.444;2023-06-01T06:07:46;2.45;;;1.45;;
65461;SDS011;53236;43.666;18.444;2023-06-01T06:10:12;2.05;;;1.20;;
65461;SDS011;53236;43.666;18.444;2023-06-01T06:12:38;2.67;;;1.10;;
65461;SDS011;53236;43.666;18.444;2023-06-01T06:15:05;2.38;;;1.13;;
65461;SDS011;53236;43.666;18.444;2023-06-01T06:17:31;3.75;;;2.10;;
65461;SDS011;53236;43.666;18.444;2023-06-01T06:19:57;3.40;;;1.70;;
65461;SDS011;53236;43.666;18.444;2023-06-01T06:22:22;4.28;;;2.13;;
65461;SDS011;53236;43.666;18.444;2023-06-01T06:24:48;5.63;;;1.90;;
65461;SDS011;53236;43.666;18.444;2023-06-01T06:27:14;3.95;;;2.50;;
65461;SDS011;53236;43.666;18.444;2023-06-01T06:29:40;3.80;;;2.20;;
65461;SDS011;53236;43.666;18.444;2023-06-01T06:32:06;4.05;;;2.25;;
65461;SDS011;53236;43.666;18.444;2023-06-01T06:34:32;4.85;;;2.10;;
65461;SDS011;53236;43.666;18.444;2023-06-01T06:37:04;5.88;;;2.00;;
65461;SDS011;53236;43.666;18.444;2023-06-01T06:39:31;3.97;;;2.28;;
65461;SDS011;53236;43.666;18.444;2023-06-01T06:41:57;3.97;;;2.45;;
65461;SDS011;53236;43.666;18.444;2023-06-01T06:44:23;4.47;;;2.80;;
65461;SDS011;53236;43.666;18.444;2023-06-01T06:46:49;4.38;;;2.85;;
65461;SDS011;53236;43.666;18.444;2023-06-01T06:49:15;4.65;;;3.20;;
65461;SDS011;53236;43.666;18.444;2023-06-01T06:51:41;4.03;;;2.92;;
65461;SDS011;53236;43.666;18.444;2023-06-01T06:54:06;6.28;;;3.58;;
65461;SDS011;53236;43.666;18.444;2023-06-01T06:56:32;5.93;;;4.05;;
65461;SDS011;53236;43.666;18.444;2023-06-01T06:58:59;6.78;;;3.72;;
65461;SDS011;53236;43.666;18.444;2023-06-01T07:01:24;4.10;;;3.22;;
65461;SDS011;53236;43.666;18.444;2023-06-01T07:03:52;4.70;;;3.25;;
65461;SDS011;53236;43.666;18.444;2023-06-01T07:06:18;4.90;;;3.67;;
65461;SDS011;53236;43.666;18.444;2023-06-01T07:08:44;4.60;;;3.38;;
65461;SDS011;53236;43.666;18.444;2023-06-01T07:11:10;8.07;;;6.60;;
65461;SDS011;53236;43.666;18.444;2023-06-01T07:13:35;6.68;;;4.60;;
65461;SDS011;53236;43.666;18.444;2023-06-01T07:16:02;6.22;;;3.85;;
65461;SDS011;53236;43.666;18.444;2023-06-01T07:18:30;7.30;;;4.13;;
65461;SDS011;53236;43.666;18.444;2023-06-01T07:20:56;5.93;;;4.18;;
65461;SDS011;53236;43.666;18.444;2023-06-01T07:23:23;7.30;;;3.70;;
65461;SDS011;53236;43.666;18.444;2023-06-01T07:25:49;9.45;;;8.02;;
65461;SDS011;53236;43.666;18.444;2023-06-01T07:28:15;8.55;;;4.07;;
65461;SDS011;53236;43.666;18.444;2023-06-01T07:30:41;7.13;;;4.22;;
65461;SDS011;53236;43.666;18.444;2023-06-01T07:33:07;6.85;;;4.40;;
65461;SDS011;53236;43.666;18.444;2023-06-01T07:35:33;6.55;;;3.85;;
65461;SDS011;53236;43.666;18.444;2023-06-01T07:38:00;5.35;;;3.92;;
65461;SDS011;53236;43.666;18.444;2023-06-01T07:40:28;6.90;;;3.88;;
65461;SDS011;53236;43.666;18.444;2023-06-01T07:42:55;7.25;;;4.22;;
65461;SDS011;53236;43.666;18.444;2023-06-01T07:45:21;5.93;;;3.65;;
65461;SDS011;53236;43.666;18.444;2023-06-01T07:47:47;6.00;;;3.83;;
65461;SDS011;53236;43.666;18.444;2023-06-01T07:50:13;5.20;;;4.32;;
65461;SDS011;53236;43.666;18.444;2023-06-01T07:52:39;5.20;;;4.18;;
65461;SDS011;53236;43.666;18.444;2023-06-01T07:55:06;7.13;;;5.50;;
65461;SDS011;53236;43.666;18.444;2023-06-01T07:57:35;7.90;;;6.32;;
65461;SDS011;53236;43.666;18.444;2023-06-01T08:00:01;5.35;;;3.88;;
65461;SDS011;53236;43.666;18.444;2023-06-01T08:02:29;6.07;;;3.63;;
65461;SDS011;53236;43.666;18.444;2023-06-01T08:04:54;5.68;;;3.85;;
65461;SDS011;53236;43.666;18.444;2023-06-01T08:07:22;5.50;;;3.97;;
65461;SDS011;53236;43.666;18.444;2023-06-01T08:09:48;4.85;;;3.67;;
65461;SDS011;53236;43.666;18.444;2023-06-01T08:12:14;5.35;;;3.88;;
65461;SDS011;53236;43.666;18.444;2023-06-01T08:14:40;6.20;;;4.28;;
65461;SDS011;53236;43.666;18.444;2023-06-01T08:17:06;6.28;;;4.47;;
65461;SDS011;53236;43.666;18.444;2023-06-01T08:19:32;6.18;;;4.30;;
65461;SDS011;53236;43.666;18.444;2023-06-01T08:21:59;5.53;;;4.55;;
65461;SDS011;53236;43.666;18.444;2023-06-01T08:24:24;8.30;;;5.72;;
65461;SDS011;53236;43.666;18.444;2023-06-01T08:26:54;8.27;;;4.82;;
65461;SDS011;53236;43.666;18.444;2023-06-01T08:29:21;8.32;;;5.72;;
65461;SDS011;53236;43.666;18.444;2023-06-01T08:31:47;8.88;;;5.35;;
65461;SDS011;53236;43.666;18.444;2023-06-01T08:34:12;7.85;;;5.40;;
65461;SDS011;53236;43.666;18.444;2023-06-01T08:36:38;7.10;;;5.07;;
65461;SDS011;53236;43.666;18.444;2023-06-01T08:39:20;7.20;;;5.28;;
65461;SDS011;53236;43.666;18.444;2023-06-01T08:44:47;6.75;;;4.85;;
65461;SDS011;53236;43.666;18.444;2023-06-01T08:47:17;6.82;;;5.07;;
65461;SDS011;53236;43.666;18.444;2023-06-01T08:49:44;6.93;;;5.20;;
65461;SDS011;53236;43.666;18.444;2023-06-01T08:52:13;7.30;;;5.35;;
65461;SDS011;53236;43.666;18.444;2023-06-01T08:54:43;10.77;;;5.20;;
65461;SDS011;53236;43.666;18.444;2023-06-01T08:57:09;6.95;;;5.47;;
65461;SDS011;53236;43.666;18.444;2023-06-01T08:59:36;8.07;;;5.35;;
65461;SDS011;53236;43.666;18.444;2023-06-01T09:02:04;7.90;;;5.57;;
65461;SDS011;53236;43.666;18.444;2023-06-01T09:04:31;7.03;;;5.60;;
65461;SDS011;53236;43.666;18.444;2023-06-01T09:06:59;9.13;;;6.43;;
65461;SDS011;53236;43.666;18.444;2023-06-01T09:09:25;8.55;;;5.70;;
65461;SDS011;53236;43.666;18.444;2023-06-01T09:15:06;7.75;;;5.90;;
65461;SDS011;53236;43.666;18.444;2023-06-01T09:17:33;8.20;;;6.10;;
65461;SDS011;53236;43.666;18.444;2023-06-01T09:20:02;7.88;;;6.20;;
65461;SDS011;53236;43.666;18.444;2023-06-01T09:22:38;7.18;;;5.25;;
65461;SDS011;53236;43.666;18.444;2023-06-01T09:25:05;7.13;;;5.25;;
65461;SDS011;53236;43.666;18.444;2023-06-01T09:27:45;8.88;;;5.88;;
65461;SDS011;53236;43.666;18.444;2023-06-01T09:30:14;7.05;;;5.63;;
65461;SDS011;53236;43.666;18.444;2023-06-01T09:32:41;8.55;;;6.40;;
65461;SDS011;53236;43.666;18.444;2023-06-01T09:35:07;7.28;;;5.28;;
65461;SDS011;53236;43.666;18.444;2023-06-01T09:37:36;7.63;;;5.45;;
65461;SDS011;53236;43.666;18.444;2023-06-01T09:40:05;7.38;;;5.25;;
65461;SDS011;53236;43.666;18.444;2023-06-01T09:42:44;7.28;;;5.40;;
65461;SDS011;53236;43.666;18.444;2023-06-01T09:45:21;6.28;;;5.18;;
65461;SDS011;53236;43.666;18.444;2023-06-01T09:47:48;7.45;;;5.85;;
65461;SDS011;53236;43.666;18.444;2023-06-01T09:50:34;7.13;;;5.93;;
65461;SDS011;53236;43.666;18.444;2023-06-01T09:53:01;9.18;;;6.32;;
65461;SDS011;53236;43.666;18.444;2023-06-01T09:55:28;7.35;;;5.43;;
65461;SDS011;53236;43.666;18.444;2023-06-01T10:00:49;6.95;;;5.18;;
65461;SDS011;53236;43.666;18.444;2023-06-01T10:03:16;8.02;;;5.43;;
65461;SDS011;53236;43.666;18.444;2023-06-01T10:05:43;7.20;;;5.05;;
65461;SDS011;53236;43.666;18.444;2023-06-01T10:08:13;6.88;;;5.30;;
65461;SDS011;53236;43.666;18.444;2023-06-01T10:10:42;7.18;;;5.55;;
65461;SDS011;53236;43.666;18.444;2023-06-01T10:13:12;7.13;;;5.50;;
65461;SDS011;53236;43.666;18.444;2023-06-01T10:15:38;7.70;;;5.78;;
65461;SDS011;53236;43.666;18.444;2023-06-01T10:18:04;7.72;;;5.78;;
65461;SDS011;53236;43.666;18.444;2023-06-01T10:20:34;8.23;;;5.80;;
65461;SDS011;53236;43.666;18.444;2023-06-01T10:23:01;7.75;;;5.40;;
65461;SDS011;53236;43.666;18.444;2023-06-01T10:25:40;6.90;;;5.38;;
65461;SDS011;53236;43.666;18.444;2023-06-01T10:28:10;7.53;;;5.25;;
65461;SDS011;53236;43.666;18.444;2023-06-01T10:30:37;7.75;;;5.20;;
65461;SDS011;53236;43.666;18.444;2023-06-01T10:33:04;8.00;;;6.18;;
65461;SDS011;53236;43.666;18.444;2023-06-01T10:40:41;7.85;;;5.40;;
65461;SDS011;53236;43.666;18.444;2023-06-01T10:46:02;7.55;;;5.60;;
65461;SDS011;53236;43.666;18.444;2023-06-01T10:48:51;7.95;;;6.03;;
65461;SDS011;53236;43.666;18.444;2023-06-01T10:51:19;7.93;;;6.25;;
65461;SDS011;53236;43.666;18.444;2023-06-01T10:53:46;6.55;;;5.18;;
65461;SDS011;53236;43.666;18.444;2023-06-01T10:56:21;6.88;;;5.10;;
65461;SDS011;53236;43.666;18.444;2023-06-01T11:01:43;7.00;;;5.28;;
65461;SDS011;53236;43.666;18.444;2023-06-01T11:04:10;8.30;;;5.47;;
65461;SDS011;53236;43.666;18.444;2023-06-01T11:06:40;7.15;;;5.35;;
65461;SDS011;53236;43.666;18.444;2023-06-01T11:09:11;13.02;;;5.65;;
65461;SDS011;53236;43.666;18.444;2023-06-01T11:14:27;8.27;;;5.60;;
65461;SDS011;53236;43.666;18.444;2023-06-01T11:20:00;5.33;;;3.73;;
65461;SDS011;53236;43.666;18.444;2023-06-01T11:22:34;8.13;;;4.30;;
65461;SDS011;53236;43.666;18.444;2023-06-01T11:25:02;6.03;;;4.60;;
65461;SDS011;53236;43.666;18.444;2023-06-01T11:27:31;5.00;;;3.95;;
65461;SDS011;53236;43.666;18.444;2023-06-01T11:29:57;5.60;;;4.28;;
65461;SDS011;53236;43.666;18.444;2023-06-01T11:32:23;5.38;;;3.97;;
65461;SDS011;53236;43.666;18.444;2023-06-01T11:34:51;7.50;;;4.43;;
65461;SDS011;53236;43.666;18.444;2023-06-01T11:37:19;6.38;;;4.93;;
65461;SDS011;53236;43.666;18.444;2023-06-01T11:39:45;7.88;;;4.55;;
65461;SDS011;53236;43.666;18.444;2023-06-01T11:42:12;7.22;;;5.50;;
65461;SDS011;53236;43.666;18.444;2023-06-01T11:44:41;7.28;;;5.35;;
65461;SDS011;53236;43.666;18.444;2023-06-01T11:47:08;11.95;;;6.30;;
65461;SDS011;53236;43.666;18.444;2023-06-01T11:49:41;9.82;;;6.38;;
65461;SDS011;53236;43.666;18.444;2023-06-01T11:52:09;8.55;;;6.32;;
65461;SDS011;53236;43.666;18.444;2023-06-01T11:54:35;11.27;;;7.13;;
65461;SDS011;53236;43.666;18.444;2023-06-01T11:57:02;8.18;;;5.70;;
65461;SDS011;53236;43.666;18.444;2023-06-01T11:59:45;8.85;;;6.22;;
65461;SDS011;53236;43.666;18.444;2023-06-01T12:02:16;8.50;;;6.53;;
65461;SDS011;53236;43.666;18.444;2023-06-01T12:07:31;8.23;;;6.03;;
65461;SDS011;53236;43.666;18.444;2023-06-01T12:09:57;10.20;;;6.55;;
65461;SDS011;53236;43.666;18.444;2023-06-01T12:12:25;7.00;;;5.20;;
65461;SDS011;53236;43.666;18.444;2023-06-01T12:14:54;7.55;;;5.22;;
65461;SDS011;53236;43.666;18.444;2023-06-01T12:17:20;8.05;;;5.53;;
65461;SDS011;53236;43.666;18.444;2023-06-01T12:19:49;7.65;;;5.78;;
65461;SDS011;53236;43.666;18.444;2023-06-01T12:22:16;7.20;;;5.38;;
65461;SDS011;53236;43.666;18.444;2023-06-01T12:24:42;8.05;;;6.35;;
65461;SDS011;53236;43.666;18.444;2023-06-01T12:27:15;8.00;;;6.22;;
65461;SDS011;53236;43.666;18.444;2023-06-01T12:29:42;8.88;;;5.80;;
65461;SDS011;53236;43.666;18.444;2023-06-01T12:32:11;8.45;;;6.00;;
65461;SDS011;53236;43.666;18.444;2023-06-01T12:34:42;7.55;;;5.68;;
65461;SDS011;53236;43.666;18.444;2023-06-01T12:39:51;7.32;;;5.63;;
65461;SDS011;53236;43.666;18.444;2023-06-01T12:42:19;7.65;;;5.32;;
65461;SDS011;53236;43.666;18.444;2023-06-01T12:44:58;10.50;;;6.40;;
65461;SDS011;53236;43.666;18.444;2023-06-01T12:47:24;8.77;;;5.82;;
65461;SDS011;53236;43.666;18.444;2023-06-01T12:50:03;7.80;;;5.97;;
65461;SDS011;53236;43.666;18.444;2023-06-01T12:52:37;7.40;;;5.00;;
65461;SDS011;53236;43.666;18.444;2023-06-01T12:55:04;9.27;;;5.43;;
65461;SDS011;53236;43.666;18.444;2023-06-01T12:57:30;7.18;;;5.13;;
65461;SDS011;53236;43.666;18.444;2023-06-01T12:59:57;6.22;;;4.60;;
65461;SDS011;53236;43.666;18.444;2023-06-01T13:02:23;5.82;;;4.43;;
65461;SDS011;53236;43.666;18.444;2023-06-01T13:04:49;6.95;;;4.97;;
65461;SDS011;53236;43.666;18.444;2023-06-01T13:07:15;5.55;;;4.30;;
65461;SDS011;53236;43.666;18.444;2023-06-01T13:09:41;5.88;;;4.60;;
65461;SDS011;53236;43.666;18.444;2023-06-01T13:12:07;6.28;;;4.53;;
65461;SDS011;53236;43.666;18.444;2023-06-01T13:14:34;5.85;;;4.32;;
65461;SDS011;53236;43.666;18.444;2023-06-01T13:17:00;7.55;;;4.60;;
65461;SDS011;53236;43.666;18.444;2023-06-01T13:19:28;4.45;;;3.38;;
65461;SDS011;53236;43.666;18.444;2023-06-01T13:21:54;5.57;;;3.03;;
65461;SDS011;53236;43.666;18.444;2023-06-01T13:24:20;3.55;;;2.25;;
65461;SDS011;53236;43.666;18.444;2023-06-01T13:26:46;4.30;;;3.08;;
65461;SDS011;53236;43.666;18.444;2023-06-01T13:29:12;3.72;;;1.95;;
65461;SDS011;53236;43.666;18.444;2023-06-01T13:31:38;3.42;;;2.33;;
65461;SDS011;53236;43.666;18.444;2023-06-01T13:34:04;7.88;;;2.40;;
65461;SDS011;53236;43.666;18.444;2023-06-01T13:36:30;5.93;;;3.30;;
65461;SDS011;53236;43.666;18.444;2023-06-01T13:38:56;7.30;;;2.95;;
65461;SDS011;53236;43.666;18.444;2023-06-01T13:41:22;4.20;;;2.83;;
65461;SDS011;53236;43.666;18.444;2023-06-01T13:43:48;4.80;;;2.88;;
65461;SDS011;53236;43.666;18.444;2023-06-01T13:46:14;6.75;;;2.88;;
65461;SDS011;53236;43.666;18.444;2023-06-01T13:48:40;4.03;;;2.40;;
65461;SDS011;53236;43.666;18.444;2023-06-01T13:51:06;3.83;;;2.53;;
65461;SDS011;53236;43.666;18.444;2023-06-01T13:53:32;6.70;;;4.18;;
65461;SDS011;53236;43.666;18.444;2023-06-01T13:56:01;4.43;;;2.80;;
65461;SDS011;53236;43.666;18.444;2023-06-01T13:58:28;3.85;;;2.22;;
65461;SDS011;53236;43.666;18.444;2023-06-01T14:00:54;4.50;;;2.63;;
65461;SDS011;53236;43.666;18.444;2023-06-01T14:03:20;4.07;;;2.53;;
65461;SDS011;53236;43.666;18.444;2023-06-01T14:05:45;2.78;;;1.95;;
65461;SDS011;53236;43.666;18.444;2023-06-01T14:08:11;3.63;;;1.90;;
65461;SDS011;53236;43.666;18.444;2023-06-01T14:10:37;4.45;;;2.17;;
65461;SDS011;53236;43.666;18.444;2023-06-01T14:13:03;4.28;;;2.22;;
65461;SDS011;53236;43.666;18.444;2023-06-01T14:15:28;3.10;;;1.92;;
65461;SDS011;53236;43.666;18.444;2023-06-01T14:17:55;5.65;;;2.25;;
65461;SDS011;53236;43.666;18.444;2023-06-01T14:20:21;3.67;;;2.30;;
65461;SDS011;53236;43.666;18.444;2023-06-01T14:22:47;3.88;;;2.67;;
65461;SDS011;53236;43.666;18.444;2023-06-01T14:25:12;5.55;;;2.88;;
65461;SDS011;53236;43.666;18.444;2023-06-01T14:27:38;7.97;;;3.35;;
65461;SDS011;53236;43.666;18.444;2023-06-01T14:30:05;5.75;;;3.25;;
65461;SDS011;53236;43.666;18.444;2023-06-01T14:32:32;6.75;;;3.10;;
65461;SDS011;53236;43.666;18.444;2023-06-01T14:34:57;7.20;;;3.13;;
65461;SDS011;53236;43.666;18.444;2023-06-01T14:37:23;7.95;;;3.38;;
65461;SDS011;53236;43.666;18.444;2023-06-01T14:39:49;6.15;;;3.00;;
65461;SDS011;53236;43.666;18.444;2023-06-01T14:42:16;4.93;;;3.03;;
65461;SDS011;53236;43.666;18.444;2023-06-01T14:44:42;5.18;;;3.30;;
65461;SDS011;53236;43.666;18.444;2023-06-01T14:47:08;5.95;;;3.13;;
65461;SDS011;53236;43.666;18.444;2023-06-01T14:49:36;6.70;;;3.33;;
65461;SDS011;53236;43.666;18.444;2023-06-01T14:52:03;7.20;;;3.03;;
65461;SDS011;53236;43.666;18.444;2023-06-01T14:54:29;5.82;;;3.20;;
65461;SDS011;53236;43.666;18.444;2023-06-01T14:56:54;6.95;;;3.03;;
65461;SDS011;53236;43.666;18.444;2023-06-01T14:59:20;7.00;;;3.22;;
65461;SDS011;53236;43.666;18.444;2023-06-01T15:01:46;5.15;;;3.30;;
65461;SDS011;53236;43.666;18.444;2023-06-01T15:04:12;5.22;;;3.13;;
65461;SDS011;53236;43.666;18.444;2023-06-01T15:06:37;4.85;;;3.03;;
65461;SDS011;53236;43.666;18.444;2023-06-01T15:09:03;9.43;;;2.83;;
65461;SDS011;53236;43.666;18.444;2023-06-01T15:11:29;4.28;;;2.75;;
65461;SDS011;53236;43.666;18.444;2023-06-01T15:13:55;5.22;;;3.38;;
65461;SDS011;53236;43.666;18.444;2023-06-01T15:16:21;5.25;;;2.75;;
65461;SDS011;53236;43.666;18.444;2023-06-01T15:18:47;5.13;;;2.65;;
65461;SDS011;53236;43.666;18.444;2023-06-01T15:21:12;5.07;;;2.63;;
65461;SDS011;53236;43.666;18.444;2023-06-01T15:23:38;3.42;;;2.55;;
65461;SDS011;53236;43.666;18.444;2023-06-01T15:26:05;4.32;;;2.92;;
65461;SDS011;53236;43.666;18.444;2023-06-01T15:28:31;4.05;;;2.70;;
65461;SDS011;53236;43.666;18.444;2023-06-01T15:30:57;5.25;;;2.92;;
65461;SDS011;53236;43.666;18.444;2023-06-01T15:33:22;4.53;;;2.92;;
65461;SDS011;53236;43.666;18.444;2023-06-01T15:35:48;4.35;;;3.03;;
65461;SDS011;53236;43.666;18.444;2023-06-01T15:38:14;4.55;;;3.17;;
65461;SDS011;53236;43.666;18.444;2023-06-01T15:40:40;4.82;;;2.88;;
65461;SDS011;53236;43.666;18.444;2023-06-01T15:43:06;6.28;;;2.85;;
65461;SDS011;53236;43.666;18.444;2023-06-01T15:45:31;4.43;;;3.33;;
65461;SDS011;53236;43.666;18.444;2023-06-01T15:47:57;5.15;;;3.30;;
65461;SDS011;53236;43.666;18.444;2023-06-01T15:50:23;6.97;;;3.30;;
65461;SDS011;53236;43.666;18.444;2023-06-01T15:52:49;5.20;;;3.70;;
65461;SDS011;53236;43.666;18.444;2023-06-01T15:55:15;7.32;;;3.45;;
65461;SDS011;53236;43.666;18.444;2023-06-01T15:57:40;5.90;;;3.90;;
65461;SDS011;53236;43.666;18.444;2023-06-01T16:00:06;8.30;;;3.97;;
65461;SDS011;53236;43.666;18.444;2023-06-01T16:02:33;7.97;;;4.95;;
65461;SDS011;53236;43.666;18.444;2023-06-01T16:04:59;8.02;;;5.43;;
65461;SDS011;53236;43.666;18.444;2023-06-01T16:07:24;8.52;;;5.43;;
65461;SDS011;53236;43.666;18.444;2023-06-01T16:09:50;10.05;;;5.95;;
65461;SDS011;53236;43.666;18.444;2023-06-01T16:12:16;9.52;;;5.60;;
65461;SDS011;53236;43.666;18.444;2023-06-01T16:14:41;8.18;;;4.95;;
65461;SDS011;53236;43.666;18.444;2023-06-01T16:17:11;8.85;;;6.13;;
65461;SDS011;53236;43.666;18.444;2023-06-01T16:19:42;8.10;;;6.10;;
65461;SDS011;53236;43.666;18.444;2023-06-01T16:22:08;11.98;;;6.97;;
65461;SDS011;53236;43.666;18.444;2023-06-01T16:24:34;8.93;;;6.25;;
65461;SDS011;53236;43.666;18.444;2023-06-01T16:27:02;9.32;;;6.47;;
65461;SDS011;53236;43.666;18.444;2023-06-01T16:29:30;9.32;;;6.65;;
65461;SDS011;53236;43.666;18.444;2023-06-01T16:31:56;8.63;;;6.70;;
65461;SDS011;53236;43.666;18.444;2023-06-01T16:34:22;12.07;;;7.22;;
65461;SDS011;53236;43.666;18.444;2023-06-01T16:36:48;9.68;;;6.57;;
65461;SDS011;53236;43.666;18.444;2023-06-01T16:39:13;11.35;;;7.10;;
65461;SDS011;53236;43.666;18.444;2023-06-01T16:41:40;8.88;;;6.00;;
65461;SDS011;53236;43.666;18.444;2023-06-01T16:44:06;8.77;;;5.90;;
65461;SDS011;53236;43.666;18.444;2023-06-01T16:46:32;9.85;;;6.68;;
65461;SDS011;53236;43.666;18.444;2023-06-01T16:48:57;12.18;;;6.97;;
65461;SDS011;53236;43.666;18.444;2023-06-01T16:51:23;11.40;;;6.70;;
65461;SDS011;53236;43.666;18.444;2023-06-01T16:53:49;10.82;;;6.70;;
65461;SDS011;53236;43.666;18.444;2023-06-01T16:56:18;10.68;;;7.35;;
65461;SDS011;53236;43.666;18.444;2023-06-01T16:58:44;13.80;;;7.25;;
65461;SDS011;53236;43.666;18.444;2023-06-01T17:01:10;10.27;;;6.70;;
65461;SDS011;53236;43.666;18.444;2023-06-01T17:03:35;9.45;;;6.85;;
65461;SDS011;53236;43.666;18.444;2023-06-01T17:06:01;10.57;;;7.18;;
65461;SDS011;53236;43.666;18.444;2023-06-01T17:08:27;10.50;;;7.20;;
65461;SDS011;53236;43.666;18.444;2023-06-01T17:10:53;10.93;;;7.75;;
65461;SDS011;53236;43.666;18.444;2023-06-01T17:13:19;11.95;;;7.25;;
65461;SDS011;53236;43.666;18.444;2023-06-01T17:15:44;10.77;;;7.68;;
65461;SDS011;53236;43.666;18.444;2023-06-01T17:18:10;12.73;;;7.50;;
65461;SDS011;53236;43.666;18.444;2023-06-01T17:20:36;12.32;;;7.88;;
65461;SDS011;53236;43.666;18.444;2023-06-01T17:23:03;15.75;;;8.70;;
65461;SDS011;53236;43.666;18.444;2023-06-01T17:25:28;12.63;;;7.22;;
65461;SDS011;53236;43.666;18.444;2023-06-01T17:27:54;11.98;;;7.53;;
65461;SDS011;53236;43.666;18.444;2023-06-01T17:30:20;15.27;;;8.00;;
65461;SDS011;53236;43.666;18.444;2023-06-01T17:32:46;12.02;;;7.93;;
65461;SDS011;53236;43.666;18.444;2023-06-01T17:35:11;13.48;;;9.45;;
65461;SDS011;53236;43.666;18.444;2023-06-01T17:37:37;17.65;;;8.80;;
65461;SDS011;53236;43.666;18.444;2023-06-01T17:40:03;16.85;;;8.68;;
65461;SDS011;53236;43.666;18.444;2023-06-01T17:42:29;15.77;;;9.93;;
65461;SDS011;53236;43.666;18.444;2023-06-01T17:44:55;14.23;;;9.07;;
65461;SDS011;53236;43.666;18.444;2023-06-01T17:47:21;12.20;;;8.57;;
65461;SDS011;53236;43.666;18.444;2023-06-01T17:49:46;12.60;;;7.65;;
65461;SDS011;53236;43.666;18.444;2023-06-01T17:52:12;15.98;;;8.00;;
65461;SDS011;53236;43.666;18.444;2023-06-01T17:54:38;11.65;;;7.55;;
65461;SDS011;53236;43.666;18.444;2023-06-01T17:57:04;11.32;;;8.15;;
65461;SDS011;53236;43.666;18.444;2023-06-01T17:59:30;12.13;;;7.97;;
65461;SDS011;53236;43.666;18.444;2023-06-01T18:01:56;12.98;;;9.02;;
65461;SDS011;53236;43.666;18.444;2023-06-01T18:04:21;13.30;;;8.98;;
65461;SDS011;53236;43.666;18.444;2023-06-01T18:06:47;12.32;;;8.20;;
65461;SDS011;53236;43.666;18.444;2023-06-01T18:09:13;12.45;;;7.70;;
65461;SDS011;53236;43.666;18.444;2023-06-01T18:11:38;15.98;;;8.30;;
65461;SDS011;53236;43.666;18.444;2023-06-01T18:14:04;15.35;;;8.85;;
65461;SDS011;53236;43.666;18.444;2023-06-01T18:16:30;11.70;;;8.47;;
65461;SDS011;53236;43.666;18.444;2023-06-01T18:18:56;15.95;;;9.00;;
65461;SDS011;53236;43.666;18.444;2023-06-01T18:21:22;13.33;;;8.57;;
65461;SDS011;53236;43.666;18.444;2023-06-01T18:23:47;14.93;;;9.13;;
65461;SDS011;53236;43.666;18.444;2023-06-01T18:26:14;14.27;;;8.50;;
65461;SDS011;53236;43.666;18.444;2023-06-01T18:28:41;18.50;;;9.57;;
65461;SDS011;53236;43.666;18.444;2023-06-01T18:31:07;14.98;;;9.40;;
65461;SDS011;53236;43.666;18.444;2023-06-01T18:33:33;16.63;;;9.60;;
65461;SDS011;53236;43.666;18.444;2023-06-01T18:35:59;13.27;;;9.20;;
65461;SDS011;53236;43.666;18.444;2023-06-01T18:38:25;12.73;;;9.10;;
65461;SDS011;53236;43.666;18.444;2023-06-01T18:40:51;13.47;;;8.80;;
65461;SDS011;53236;43.666;18.444;2023-06-01T18:43:17;14.00;;;8.77;;
65461;SDS011;53236;43.666;18.444;2023-06-01T18:45:42;15.80;;;8.73;;
65461;SDS011;53236;43.666;18.444;2023-06-01T18:48:09;17.40;;;9.17;;
65461;SDS011;53236;43.666;18.444;2023-06-01T18:50:34;16.77;;;10.07;;
65461;SDS011;53236;43.666;18.444;2023-06-01T18:53:00;16.57;;;9.27;;
65461;SDS011;53236;43.666;18.444;2023-06-01T18:55:26;16.70;;;9.40;;
65461;SDS011;53236;43.666;18.444;2023-06-01T18:57:52;23.03;;;9.83;;
65461;SDS011;53236;43.666;18.444;2023-06-01T19:00:17;15.13;;;9.13;;
65461;SDS011;53236;43.666;18.444;2023-06-01T19:02:44;21.33;;;9.80;;
65461;SDS011;53236;43.666;18.444;2023-06-01T19:05:11;16.60;;;9.97;;
65461;SDS011;53236;43.666;18.444;2023-06-01T19:07:38;19.17;;;9.10;;
65461;SDS011;53236;43.666;18.444;2023-06-01T19:10:08;16.10;;;9.13;;
65461;SDS011;53236;43.666;18.444;2023-06-01T19:12:35;13.67;;;8.90;;
65461;SDS011;53236;43.666;18.444;2023-06-01T19:15:01;15.53;;;8.90;;
65461;SDS011;53236;43.666;18.444;2023-06-01T19:17:32;14.17;;;8.50;;
65461;SDS011;53236;43.666;18.444;2023-06-01T19:19:58;17.37;;;9.17;;
65461;SDS011;53236;43.666;18.444;2023-06-01T19:22:28;18.27;;;9.60;;
65461;SDS011;53236;43.666;18.444;2023-06-01T19:24:56;20.20;;;12.07;;
65461;SDS011;53236;43.666;18.444;2023-06-01T19:27:26;16.27;;;10.67;;
65461;SDS011;53236;43.666;18.444;2023-06-01T19:29:52;23.07;;;10.83;;
65461;SDS011;53236;43.666;18.444;2023-06-01T19:32:18;18.57;;;10.60;;
65461;SDS011;53236;43.666;18.444;2023-06-01T19:34:44;19.40;;;10.50;;
65461;SDS011;53236;43.666;18.444;2023-06-01T19:37:10;20.93;;;12.07;;
65461;SDS011;53236;43.666;18.444;2023-06-01T19:39:44;15.27;;;9.87;;
65461;SDS011;53236;43.666;18.444;2023-06-01T19:44:41;14.50;;;8.77;;
65461;SDS011;53236;43.666;18.444;2023-06-01T19:47:07;14.60;;;9.10;;
65461;SDS011;53236;43.666;18.444;2023-06-01T19:49:42;16.15;;;9.93;;
65461;SDS011;53236;43.666;18.444;2023-06-01T19:52:09;17.43;;;10.80;;
65461;SDS011;53236;43.666;18.444;2023-06-01T19:54:35;20.70;;;12.17;;
65461;SDS011;53236;43.666;18.444;2023-06-01T19:57:04;19.13;;;11.73;;
65461;SDS011;53236;43.666;18.444;2023-06-01T19:59:30;16.73;;;11.40;;
65461;SDS011;53236;43.666;18.444;2023-06-01T20:01:57;21.77;;;12.50;;
65461;SDS011;53236;43.666;18.444;2023-06-01T20:04:24;15.17;;;10.27;;
65461;SDS011;53236;43.666;18.444;2023-06-01T20:06:51;19.77;;;9.80;;
65461;SDS011;53236;43.666;18.444;2023-06-01T20:09:19;19.43;;;10.97;;
65461;SDS011;53236;43.666;18.444;2023-06-01T20:11:50;17.07;;;10.03;;
65461;SDS011;53236;43.666;18.444;2023-06-01T20:16:51;17.60;;;10.30;;
65461;SDS011;53236;43.666;18.444;2023-06-01T20:19:18;19.00;;;11.77;;
65461;SDS011;53236;43.666;18.444;2023-06-01T20:21:45;18.17;;;10.53;;
65461;SDS011;53236;43.666;18.444;2023-06-01T20:24:12;19.53;;;10.33;;
65461;SDS011;53236;43.666;18.444;2023-06-01T20:26:38;18.00;;;10.17;;
65461;SDS011;53236;43.666;18.444;2023-06-01T20:29:04;17.73;;;10.53;;
65461;SDS011;53236;43.666;18.444;2023-06-01T20:31:32;17.20;;;9.87;;
65461;SDS011;53236;43.666;18.444;2023-06-01T20:33:58;20.37;;;10.10;;
65461;SDS011;53236;43.666;18.444;2023-06-01T20:36:25;20.37;;;10.50;;
65461;SDS011;53236;43.666;18.444;2023-06-01T20:38:52;15.63;;;9.57;;
65461;SDS011;53236;43.666;18.444;2023-06-01T20:41:19;15.93;;;10.30;;
65461;SDS011;53236;43.666;18.444;2023-06-01T20:43:51;15.03;;;9.30;;
65461;SDS011;53236;43.666;18.444;2023-06-01T20:46:18;17.20;;;9.37;;
65461;SDS011;53236;43.666;18.444;2023-06-01T20:48:55;14.37;;;7.93;;
65461;SDS011;53236;43.666;18.444;2023-06-01T20:54:07;14.53;;;9.43;;
65461;SDS011;53236;43.666;18.444;2023-06-01T20:56:41;18.80;;;9.40;;
65461;SDS011;53236;43.666;18.444;2023-06-01T21:01:47;15.47;;;7.80;;
65461;SDS011;53236;43.666;18.444;2023-06-01T21:04:17;14.37;;;7.80;;
65461;SDS011;53236;43.666;18.444;2023-06-01T21:06:46;10.07;;;7.20;;
65461;SDS011;53236;43.666;18.444;2023-06-01T21:09:12;12.23;;;7.43;;